createdAt,value
2022-10-12T00:00:51.372Z,100145.66
2022-10-12T00:03:20.162Z,100147.22
2022-10-12T00:05:51.406Z,100143.38
2022-10-12T00:08:19.386Z,100137.03
2022-10-12T00:10:47.546Z,100140.50
2022-10-12T00:13:15.620Z,100140.13
2022-10-12T00:15:43.589Z,100142.50
2022-10-12T00:18:12.954Z,100145.16
2022-10-12T00:20:42.079Z,100138.53
2022-10-12T00:23:11.040Z,100142.44
2022-10-12T00:25:39.731Z,100140.50
2022-10-12T00:28:08.006Z,100140.78
2022-10-12T00:30:36.673Z,100144.72
2022-10-12T00:33:04.896Z,100151.09
2022-10-12T00:35:34.344Z,100145.66
2022-10-12T00:38:02.372Z,100148.38
2022-10-12T00:40:30.423Z,100149.25
2022-10-12T00:42:59.845Z,100150.81
2022-10-12T00:45:28.605Z,100152.38
2022-10-12T00:48:01.190Z,100147.31
2022-10-12T00:50:32.359Z,100141.19
2022-10-12T00:53:05.475Z,100144.69
2022-10-12T00:55:39.023Z,100150.53
2022-10-12T00:58:10.192Z,100155.13
2022-10-12T01:00:41.978Z,100147.31
2022-10-12T01:03:12.549Z,100143.00
2022-10-12T01:05:41.643Z,100148.03
2022-10-12T01:08:11.240Z,100143.31
2022-10-12T01:10:39.274Z,100135.53
2022-10-12T01:13:08.023Z,100139.41
2022-10-12T01:15:40.830Z,100138.97
2022-10-12T01:18:17.245Z,100147.94
2022-10-12T01:21:03.186Z,100138.97
2022-10-12T01:23:57.691Z,100136.19
2022-10-12T01:26:49.746Z,100142.50
2022-10-12T01:29:41.308Z,100133.25
2022-10-12T01:32:19.100Z,100134.03
2022-10-12T01:34:54.218Z,100144.94
2022-10-12T01:37:29.701Z,100139.03
2022-10-12T01:40:01.667Z,100147.16
2022-10-12T01:42:33.205Z,100146.38
2022-10-12T01:45:05.795Z,100149.88
2022-10-12T01:47:36.821Z,100155.34
2022-10-12T01:50:08.052Z,100160.34
2022-10-12T01:52:43.587Z,100162.25
2022-10-12T01:55:30.495Z,100162.25
2022-10-12T01:58:19.388Z,100158.56
2022-10-12T02:00:57.268Z,100155.28
2022-10-12T02:03:36.105Z,100157.13
2022-10-12T02:06:10.263Z,100151.25
2022-10-12T02:08:47.321Z,100148.94
2022-10-12T02:11:20.323Z,100155.56
2022-10-12T02:13:52.701Z,100145.00
2022-10-12T02:16:25.230Z,100151.59
2022-10-12T02:18:57.114Z,100161.00
2022-10-12T02:21:28.847Z,100155.50
2022-10-12T02:24:00.376Z,100160.66
2022-10-12T02:26:29.615Z,100162.22
2022-10-12T02:29:00.824Z,100151.69
2022-10-12T02:31:36.776Z,100152.84
2022-10-12T02:34:12.514Z,100157.22
2022-10-12T02:36:45.748Z,100160.00
2022-10-12T02:39:18.031Z,100162.53
2022-10-12T02:41:51.074Z,100158.84
2022-10-12T02:44:24.504Z,100159.13
2022-10-12T02:46:55.768Z,100164.53
2022-10-12T02:49:28.642Z,100159.06
2022-10-12T02:51:58.724Z,100155.91
2022-10-12T02:54:26.835Z,100157.44
2022-10-12T02:56:54.828Z,100162.06
2022-10-12T02:59:22.831Z,100164.78
2022-10-12T03:01:51.001Z,100170.63
2022-10-12T03:04:19.039Z,100167.91
2022-10-12T03:06:48.433Z,100173.41
2022-10-12T03:09:16.454Z,100166.75
2022-10-12T03:11:44.857Z,100165.16
2022-10-12T03:14:13.372Z,100169.91
2022-10-12T03:16:41.438Z,100178.59
2022-10-12T03:19:10.370Z,100172.34
2022-10-12T03:21:39.739Z,100176.06
2022-10-12T03:24:09.210Z,100171.06
2022-10-12T03:26:37.450Z,100172.97
2022-10-12T03:29:05.713Z,100169.91
2022-10-12T03:31:33.708Z,100164.53
2022-10-12T03:34:02.270Z,100168.25
2022-10-12T03:36:30.688Z,100165.72
2022-10-12T03:38:58.663Z,100173.03
2022-10-12T03:41:46.887Z,100165.22
2022-10-12T03:44:14.878Z,100162.50
2022-10-12T03:46:43.200Z,100164.06
2022-10-12T03:49:12.861Z,100166.66
2022-10-12T03:51:40.830Z,100166.22
2022-10-12T03:54:08.875Z,100168.41
2022-10-12T03:56:37.215Z,100166.81
2022-10-12T03:59:06.937Z,100173.56
2022-10-12T04:01:35.085Z,100166.47
2022-10-12T04:04:04.108Z,100164.38
2022-10-12T04:06:32.051Z,100165.00
2022-10-12T04:09:00.155Z,100167.22
2022-10-12T04:11:28.660Z,100164.44
2022-10-12T04:13:56.690Z,100169.00
2022-10-12T04:16:28.802Z,100171.31
2022-10-12T04:18:59.307Z,100179.09
2022-10-12T04:21:27.588Z,100173.66
2022-10-12T04:23:55.562Z,100174.88
2022-10-12T04:26:23.590Z,100175.25
2022-10-12T04:28:51.816Z,100175.25
2022-10-12T04:31:20.048Z,100175.09
2022-10-12T04:33:49.481Z,100170.78
2022-10-12T04:36:17.444Z,100173.66
2022-10-12T04:38:45.619Z,100176.56
2022-10-12T04:41:13.630Z,100173.81
2022-10-12T04:43:41.649Z,100171.03
2022-10-12T04:46:09.628Z,100175.59
2022-10-12T04:48:37.690Z,100181.84
2022-10-12T04:51:07.355Z,100186.22
2022-10-12T04:53:35.375Z,100182.00
2022-10-12T04:56:04.698Z,100187.59
2022-10-12T04:58:33.542Z,100185.31
2022-10-12T05:01:01.529Z,100194.38
2022-10-12T05:03:29.605Z,100194.88
2022-10-12T05:05:57.593Z,100198.91
2022-10-12T05:08:28.925Z,100201.25
2022-10-12T05:10:59.717Z,100200.56
2022-10-12T05:13:29.364Z,100199.41
2022-10-12T05:15:57.458Z,100203.06
2022-10-12T05:18:25.679Z,100208.94
2022-10-12T05:20:56.986Z,100211.31
2022-10-12T05:23:25.504Z,100215.28
2022-10-12T05:25:55.796Z,100216.56
2022-10-12T05:28:24.113Z,100226.00
2022-10-12T05:30:52.617Z,100222.22
2022-10-12T05:33:21.048Z,100231.69
2022-10-12T05:35:56.258Z,100216.47
2022-10-12T05:38:24.904Z,100229.22
2022-10-12T05:40:59.170Z,100229.88
2022-10-12T05:43:28.403Z,100234.53
2022-10-12T05:45:56.542Z,100235.38
2022-10-12T05:48:25.466Z,100240.44
2022-10-12T05:50:54.594Z,100241.25
2022-10-12T05:53:22.993Z,100240.25
2022-10-12T05:55:56.893Z,100239.88
2022-10-12T05:58:25.864Z,100248.06
2022-10-12T06:00:54.369Z,100254.25
2022-10-12T06:03:25.931Z,100253.41
2022-10-12T06:05:54.345Z,100256.75
2022-10-12T06:08:22.461Z,100262.22
2022-10-12T06:10:52.812Z,100260.44
2022-10-12T06:13:22.299Z,100260.78
2022-10-12T06:15:51.434Z,100269.34
2022-10-12T06:18:20.674Z,100267.03
2022-10-12T06:20:49.570Z,100268.59
2022-10-12T06:23:17.677Z,100266.38
2022-10-12T06:25:47.730Z,100273.88
2022-10-12T06:28:16.068Z,100282.97
2022-10-12T06:30:45.815Z,100284.06
2022-10-12T06:33:13.999Z,100286.28
2022-10-12T06:35:42.001Z,100289.72
2022-10-12T06:38:10.006Z,100292.53
2022-10-12T06:40:37.983Z,100293.69
2022-10-12T06:43:05.997Z,100290.97
2022-10-12T06:45:34.583Z,100303.09
2022-10-12T06:48:04.906Z,100291.75
2022-10-12T06:50:33.215Z,100302.72
2022-10-12T06:53:02.051Z,100302.16
2022-10-12T06:55:30.672Z,100310.50
2022-10-12T06:57:59.066Z,100314.25
2022-10-12T07:00:27.505Z,100312.31
2022-10-12T07:02:55.503Z,100308.16
2022-10-12T07:05:25.295Z,100308.16
2022-10-12T07:07:53.301Z,100318.53
2022-10-12T07:10:21.397Z,100308.50
2022-10-12T07:12:49.684Z,100311.59
2022-10-12T07:15:17.815Z,100306.69
2022-10-12T07:17:45.914Z,100305.19
2022-10-12T07:20:14.400Z,100314.06
2022-10-12T07:22:44.839Z,100310.91
2022-10-12T07:25:12.867Z,100311.69
2022-10-12T07:27:41.319Z,100314.59
2022-10-12T07:30:11.542Z,100308.09
2022-10-12T07:32:39.613Z,100314.00
2022-10-12T07:35:08.231Z,100316.09
2022-10-12T07:37:36.705Z,100312.53
2022-10-12T07:40:07.607Z,100313.34
2022-10-12T07:42:35.620Z,100317.91
2022-10-12T07:45:03.835Z,100314.72
2022-10-12T07:47:31.938Z,100310.47
2022-10-12T07:50:00.523Z,100317.31
2022-10-12T07:52:28.624Z,100318.75
2022-10-12T07:54:56.732Z,100313.91
2022-10-12T07:57:26.746Z,100317.44
2022-10-12T07:59:55.799Z,100307.06
2022-10-12T08:02:24.085Z,100317.91
2022-10-12T08:04:52.804Z,100314.09
2022-10-12T08:07:20.974Z,100307.34
2022-10-12T08:09:49.554Z,100309.22
2022-10-12T08:12:17.691Z,100304.91
2022-10-12T08:14:47.856Z,100315.19
2022-10-12T08:17:16.015Z,100307.41
2022-10-12T08:19:44.058Z,100311.22
2022-10-12T08:22:12.900Z,100303.03
2022-10-12T08:24:40.897Z,100304.31
2022-10-12T08:27:09.082Z,100303.97
2022-10-12T08:29:37.711Z,100315.19
2022-10-12T08:32:07.403Z,100318.09
2022-10-12T08:34:36.012Z,100315.06
2022-10-12T08:37:04.291Z,100316.69
2022-10-12T08:39:32.286Z,100315.72
2022-10-12T08:42:15.689Z,100316.56
2022-10-12T08:45:06.020Z,100319.66
2022-10-12T08:47:42.511Z,100317.72
2022-10-12T08:50:19.388Z,100318.22
2022-10-12T08:52:55.551Z,100316.72
2022-10-12T08:55:32.391Z,100321.81
2022-10-12T08:58:00.416Z,100313.97
2022-10-12T09:00:30.997Z,100313.56
2022-10-12T09:03:14.957Z,100310.75
2022-10-12T09:05:50.345Z,100313.16
2022-10-12T09:08:29.807Z,100311.97
2022-10-12T09:11:07.803Z,100318.53
2022-10-12T09:13:48.277Z,100316.56
2022-10-12T09:16:22.534Z,100313.47
2022-10-12T09:18:57.942Z,100318.25
2022-10-12T09:21:30.002Z,100312.63
2022-10-12T09:23:58.788Z,100315.13
2022-10-12T09:26:36.566Z,100315.16
2022-10-12T09:29:16.310Z,100311.38
2022-10-12T09:32:04.486Z,100310.22
2022-10-12T09:34:33.970Z,100310.63
2022-10-12T09:37:04.185Z,100314.16
2022-10-12T09:39:34.172Z,100316.91
2022-10-12T09:42:02.506Z,100314.56
2022-10-12T09:44:35.136Z,100308.25
2022-10-12T09:47:06.219Z,100310.63
2022-10-12T09:49:46.894Z,100311.03
2022-10-12T09:52:16.934Z,100300.00
2022-10-12T09:54:50.272Z,100305.16
2022-10-12T09:57:22.573Z,100301.59
2022-10-12T09:59:51.413Z,100306.72
2022-10-12T10:02:20.936Z,100300.44
2022-10-12T10:04:51.905Z,100293.34
2022-10-12T10:07:28.239Z,100287.06
2022-10-12T10:10:16.091Z,100286.66
2022-10-12T10:12:53.143Z,100286.25
2022-10-12T10:15:24.875Z,100282.75
2022-10-12T10:17:54.901Z,100286.28
2022-10-12T10:20:29.792Z,100275.66
2022-10-12T10:22:59.490Z,100290.56
2022-10-12T10:25:27.611Z,100282.34
2022-10-12T10:28:12.314Z,100279.56
2022-10-12T10:30:41.464Z,100277.91
2022-10-12T10:33:17.167Z,100272.81
2022-10-12T10:36:00.687Z,100268.09
2022-10-12T10:38:29.661Z,100261.44
2022-10-12T10:40:59.163Z,100255.63
2022-10-12T10:43:30.245Z,100252.88
2022-10-12T10:46:01.507Z,100252.09
2022-10-12T10:48:31.996Z,100246.97
2022-10-12T10:51:03.567Z,100244.06
2022-10-12T10:53:35.243Z,100243.97
2022-10-12T10:56:10.133Z,100241.53
2022-10-12T10:58:44.132Z,100243.13
2022-10-12T11:01:19.576Z,100237.66
2022-10-12T11:03:56.519Z,100230.91
2022-10-12T11:06:37.196Z,100237.28
2022-10-12T11:09:09.148Z,100231.03
2022-10-12T11:11:40.494Z,100239.44
2022-10-12T11:14:16.075Z,100227.31
2022-10-12T11:16:49.948Z,100225.69
2022-10-12T11:19:31.606Z,100218.19
2022-10-12T11:22:05.983Z,100223.94
2022-10-12T11:24:41.909Z,100218.38
2022-10-12T11:27:16.517Z,100209.00
2022-10-12T11:29:54.148Z,100216.06
2022-10-12T11:32:39.026Z,100211.88
2022-10-12T11:35:12.831Z,100209.06
2022-10-12T11:37:49.508Z,100208.19
2022-10-12T11:40:31.106Z,100204.63
2022-10-12T11:43:14.425Z,100197.09
2022-10-12T11:45:47.277Z,100195.25
2022-10-12T11:48:21.678Z,100201.66
2022-10-12T11:50:53.470Z,100198.09
2022-10-12T11:53:32.216Z,100202.09
2022-10-12T11:56:09.463Z,100195.09
2022-10-12T11:59:00.907Z,100186.09
2022-10-12T12:02:04.780Z,100191.53
2022-10-12T12:04:43.872Z,100188.81
2022-10-12T12:07:41.939Z,100184.44
2022-10-12T12:10:47.272Z,100184.88
2022-10-12T12:13:23.589Z,100176.97
2022-10-12T12:16:34.319Z,100179.69
2022-10-12T12:19:43.565Z,100180.38
2022-10-12T12:22:24.914Z,100172.97
2022-10-12T12:24:56.887Z,100172.63
2022-10-12T12:27:31.652Z,100166.31
2022-10-12T12:30:03.218Z,100174.59
2022-10-12T12:32:44.774Z,100172.66
2022-10-12T12:35:22.846Z,100175.06
2022-10-12T12:38:01.375Z,100179.78
2022-10-12T12:40:29.566Z,100180.22
2022-10-12T12:43:37.856Z,100172.38
2022-10-12T12:46:10.621Z,100173.16
2022-10-12T12:49:05.685Z,100169.22
2022-10-12T12:51:43.655Z,100174.72
2022-10-12T12:54:22.100Z,100170.41
2022-10-12T12:57:19.427Z,100166.03
2022-10-12T13:00:13.719Z,100166.06
2022-10-12T13:03:26.190Z,100167.25
2022-10-12T13:06:46.494Z,100170.41
2022-10-12T13:09:37.594Z,100167.66
2022-10-12T13:12:28.786Z,100168.03
2022-10-12T13:15:20.593Z,100169.22
2022-10-12T13:18:14.529Z,100168.44
2022-10-12T13:20:53.317Z,100166.09
2022-10-12T13:23:25.846Z,100166.50
2022-10-12T13:25:57.784Z,100165.31
2022-10-12T13:28:29.142Z,100160.59
2022-10-12T13:31:02.874Z,100164.56
2022-10-12T13:33:36.217Z,100164.53
2022-10-12T13:36:08.952Z,100171.59
2022-10-12T13:38:38.613Z,100166.09
2022-10-12T13:41:12.435Z,100162.97
2022-10-12T13:43:46.842Z,100169.97
2022-10-12T13:46:33.716Z,100171.16
2022-10-12T13:49:01.858Z,100174.69
2022-10-12T13:51:32.402Z,100175.53
2022-10-12T13:54:00.605Z,100173.56
2022-10-12T13:56:31.155Z,100165.72
2022-10-12T13:59:04.308Z,100172.38
2022-10-12T14:01:35.780Z,100167.66
2022-10-12T14:04:05.653Z,100164.13
2022-10-12T14:06:39.201Z,100163.75
2022-10-12T14:09:10.837Z,100159.81
2022-10-12T14:11:40.189Z,100162.56
2022-10-12T14:14:18.582Z,100155.50
2022-10-12T14:16:46.788Z,100151.19
2022-10-12T14:19:23.112Z,100155.06
2022-10-12T14:21:54.571Z,100153.09
2022-10-12T14:24:22.589Z,100149.97
2022-10-12T14:26:56.266Z,100151.91
2022-10-12T14:29:33.675Z,100153.50
2022-10-12T14:32:03.419Z,100155.84
2022-10-12T14:34:47.242Z,100154.66
2022-10-12T14:37:27.540Z,100154.28
2022-10-12T14:40:01.011Z,100160.19
2022-10-12T14:42:34.323Z,100166.84
2022-10-12T14:45:03.578Z,100166.09
2022-10-12T14:47:34.579Z,100165.31
2022-10-12T14:50:07.831Z,100169.22
2022-10-12T14:52:43.615Z,100169.63
2022-10-12T14:55:17.705Z,100168.06
2022-10-12T14:57:45.991Z,100180.63
2022-10-12T15:00:16.286Z,100170.03
2022-10-12T15:02:44.787Z,100171.97
2022-10-12T15:05:14.245Z,100168.47
2022-10-12T15:07:43.727Z,100177.09
2022-10-12T15:10:11.965Z,100173.91
2022-10-12T15:12:39.986Z,100169.22
2022-10-12T15:15:28.823Z,100171.56
2022-10-12T15:17:57.352Z,100178.59
2022-10-12T15:20:25.861Z,100172.31
2022-10-12T15:22:56.201Z,100180.16
2022-10-12T15:25:27.681Z,100175.44
2022-10-12T15:27:55.647Z,100178.16
2022-10-12T15:30:23.606Z,100173.03
2022-10-12T15:32:51.641Z,100179.69
2022-10-12T15:35:21.910Z,100179.28
2022-10-12T15:37:50.314Z,100184.75
2022-10-12T15:40:21.919Z,100187.09
2022-10-12T15:42:50.300Z,100188.69
2022-10-12T15:45:21.674Z,100187.13
2022-10-12T15:47:51.152Z,100187.13
2022-10-12T15:50:21.520Z,100188.69
2022-10-12T15:52:49.840Z,100188.28
2022-10-12T15:55:22.835Z,100192.63
2022-10-12T15:57:51.661Z,100187.09
2022-10-12T16:00:22.304Z,100182.75
2022-10-12T16:02:50.695Z,100186.25
2022-10-12T16:05:24.937Z,100192.88
2022-10-12T16:07:54.775Z,100188.50
2022-10-12T16:10:28.100Z,100186.91
2022-10-12T16:12:56.553Z,100195.13
2022-10-12T16:15:26.796Z,100196.69
2022-10-12T16:17:54.781Z,100194.34
2022-10-12T16:20:23.793Z,100200.19
2022-10-12T16:22:52.628Z,100205.66
2022-10-12T16:25:24.134Z,100211.50
2022-10-12T16:27:52.822Z,100204.78
2022-10-12T16:30:21.406Z,100208.25
2022-10-12T16:32:49.784Z,100208.63
2022-10-12T16:35:19.110Z,100219.56
2022-10-12T16:37:47.133Z,100213.28
2022-10-12T16:40:16.147Z,100215.59
2022-10-12T16:42:45.779Z,100211.66
2022-10-12T16:45:13.831Z,100214.00
2022-10-12T16:47:43.185Z,100213.56
2022-10-12T16:50:11.606Z,100212.78
2022-10-12T16:52:42.537Z,100207.72
2022-10-12T16:55:12.765Z,100224.88
2022-10-12T16:57:41.621Z,100213.09
2022-10-12T17:00:16.423Z,100213.47
2022-10-12T17:02:46.182Z,100209.94
2022-10-12T17:05:14.280Z,100215.78
2022-10-12T17:07:42.500Z,100221.63
2022-10-12T17:10:11.001Z,100213.75
2022-10-12T17:12:39.489Z,100221.47
2022-10-12T17:15:08.401Z,100213.94
2022-10-12T17:17:38.016Z,100217.78
2022-10-12T17:20:06.852Z,100219.28
2022-10-12T17:22:35.120Z,100221.94
2022-10-12T17:25:03.178Z,100217.22
2022-10-12T17:27:32.466Z,100214.81
2022-10-12T17:30:00.634Z,100215.09
2022-10-12T17:32:28.667Z,100216.97
2022-10-12T17:34:58.073Z,100221.19
2022-10-12T17:37:26.157Z,100212.84
2022-10-12T17:39:54.463Z,100218.59
2022-10-12T17:42:23.167Z,100220.59
2022-10-12T17:44:52.080Z,100209.56
2022-10-12T17:47:20.493Z,100207.88
2022-10-12T17:49:48.842Z,100212.50
2022-10-12T17:52:18.632Z,100216.28
2022-10-12T17:54:46.978Z,100219.63
2022-10-12T17:57:16.293Z,100218.41
2022-10-12T17:59:44.860Z,100214.53
2022-10-12T18:02:12.925Z,100219.16
2022-10-12T18:04:40.963Z,100223.72
2022-10-12T18:07:09.073Z,100224.84
2022-10-12T18:09:38.982Z,100216.88
2022-10-12T18:12:07.497Z,100216.03
2022-10-12T18:14:35.509Z,100214.72
2022-10-12T18:17:04.016Z,100211.88
2022-10-12T18:19:32.590Z,100214.06
2022-10-12T18:22:00.657Z,100210.88
2022-10-12T18:24:29.413Z,100213.94
2022-10-12T18:26:58.957Z,100210.28
2022-10-12T18:29:27.806Z,100209.38
2022-10-12T18:31:56.401Z,100215.94
2022-10-12T18:34:24.576Z,100225.59
2022-10-12T18:36:53.341Z,100219.56
2022-10-12T18:39:21.565Z,100215.03
2022-10-12T18:41:52.798Z,100221.16
2022-10-12T18:44:24.499Z,100217.06
2022-10-12T18:46:52.725Z,100220.06
2022-10-12T18:49:21.172Z,100222.66
2022-10-12T18:51:52.047Z,100228.91
2022-10-12T18:54:20.431Z,100227.03
2022-10-12T18:56:48.621Z,100231.97
2022-10-12T18:59:18.133Z,100230.75
2022-10-12T19:01:48.252Z,100231.06
2022-10-12T19:04:16.723Z,100238.72
2022-10-12T19:06:46.683Z,100237.06
2022-10-12T19:09:15.889Z,100238.03
2022-10-12T19:11:44.515Z,100230.47
2022-10-12T19:14:15.061Z,100232.78
2022-10-12T19:16:43.942Z,100223.72
2022-10-12T19:19:20.436Z,100234.91
2022-10-12T19:21:50.256Z,100229.03
2022-10-12T19:24:21.174Z,100236.06
2022-10-12T19:26:50.094Z,100230.88
2022-10-12T19:29:18.226Z,100240.91
2022-10-12T19:31:51.001Z,100236.88
2022-10-12T19:34:23.689Z,100236.00
2022-10-12T19:36:52.274Z,100236.25
2022-10-12T19:39:22.989Z,100228.78
2022-10-12T19:41:52.510Z,100228.69
2022-10-12T19:44:22.253Z,100230.88
2022-10-12T19:46:52.589Z,100229.47
2022-10-12T19:49:22.003Z,100242.22
2022-10-12T19:51:50.369Z,100240.63
2022-10-12T19:54:19.756Z,100239.84
2022-10-12T19:56:47.745Z,100241.25
2022-10-12T19:59:15.775Z,100236.41
2022-10-12T20:01:47.944Z,100240.19
2022-10-12T20:04:16.209Z,100242.97
2022-10-12T20:06:45.694Z,100237.69
2022-10-12T20:09:13.871Z,100256.63
2022-10-12T20:11:42.170Z,100253.47
2022-10-12T20:14:11.484Z,100245.75
2022-10-12T20:16:39.865Z,100259.03
2022-10-12T20:19:08.145Z,100256.47
2022-10-12T20:21:37.435Z,100277.31
2022-10-12T20:24:10.252Z,100293.53
2022-10-12T20:26:39.447Z,100306.34
2022-10-12T20:29:07.792Z,100305.81
2022-10-12T20:31:35.777Z,100302.19
2022-10-12T20:34:03.843Z,100297.66
2022-10-12T20:36:33.009Z,100295.25
2022-10-12T20:39:01.647Z,100303.66
2022-10-12T20:41:31.229Z,100313.84
2022-10-12T20:44:01.062Z,100310.03
2022-10-12T20:46:30.666Z,100314.59
2022-10-12T20:49:00.596Z,100309.16
2022-10-12T20:51:30.654Z,100306.84
2022-10-12T20:54:01.153Z,100305.94
2022-10-12T20:56:31.537Z,100309.56
2022-10-12T20:59:01.280Z,100309.38
2022-10-12T21:01:29.426Z,100305.66
2022-10-12T21:03:58.104Z,100309.38
2022-10-12T21:06:26.935Z,100310.53
2022-10-12T21:08:57.040Z,100313.94
2022-10-12T21:11:25.995Z,100318.59
2022-10-12T21:13:58.135Z,100320.25
2022-10-12T21:16:27.184Z,100319.25
2022-10-12T21:18:57.507Z,100318.41
2022-10-12T21:21:25.533Z,100311.41
2022-10-12T21:23:55.837Z,100316.75
2022-10-12T21:26:25.358Z,100317.88
2022-10-12T21:28:53.904Z,100322.06
2022-10-12T21:31:28.207Z,100317.16
2022-10-12T21:34:00.005Z,100322.06
2022-10-12T21:36:28.616Z,100316.06
2022-10-12T21:38:57.225Z,100322.31
2022-10-12T21:41:27.609Z,100332.28
2022-10-12T21:43:56.298Z,100326.97
2022-10-12T21:46:28.548Z,100332.16
2022-10-12T21:48:57.478Z,100321.16
2022-10-12T21:51:26.447Z,100315.50
2022-10-12T21:53:55.179Z,100309.63
2022-10-12T21:56:24.975Z,100310.31
2022-10-12T21:58:54.401Z,100313.91
2022-10-12T22:01:24.891Z,100309.28
2022-10-12T22:03:56.174Z,100311.78
2022-10-12T22:06:26.438Z,100308.50
2022-10-12T22:08:56.453Z,100310.19
2022-10-12T22:11:27.285Z,100313.00
2022-10-12T22:13:59.356Z,100309.59
2022-10-12T22:16:28.143Z,100306.56
2022-10-12T22:18:59.622Z,100305.97
2022-10-12T22:21:28.083Z,100313.34
2022-10-12T22:23:56.150Z,100309.59
2022-10-12T22:26:25.343Z,100308.03
2022-10-12T22:28:53.436Z,100301.00
2022-10-12T22:31:22.339Z,100303.84
2022-10-12T22:33:50.487Z,100315.59
2022-10-12T22:36:20.302Z,100312.75
2022-10-12T22:38:48.444Z,100309.59
2022-10-12T22:41:18.293Z,100319.75
2022-10-12T22:43:46.307Z,100322.47
2022-10-12T22:46:14.498Z,100320.44
2022-10-12T22:48:42.477Z,100316.31
2022-10-12T22:51:10.660Z,100318.91
2022-10-12T22:53:40.571Z,100324.81
2022-10-12T22:56:15.636Z,100316.22
2022-10-12T22:58:43.931Z,100312.13
2022-10-12T23:01:14.123Z,100320.16
2022-10-12T23:03:42.924Z,100314.25
2022-10-12T23:06:12.315Z,100322.88
2022-10-12T23:08:42.013Z,100323.88
2022-10-12T23:11:12.294Z,100319.81
2022-10-12T23:13:42.276Z,100318.91
2022-10-12T23:16:12.458Z,100319.56
2022-10-12T23:18:41.038Z,100319.44
2022-10-12T23:21:10.916Z,100328.22
2022-10-12T23:23:42.489Z,100333.66
2022-10-12T23:26:13.019Z,100330.16
2022-10-12T23:28:41.173Z,100340.91
2022-10-12T23:31:10.542Z,100339.63
2022-10-12T23:33:38.566Z,100339.97
2022-10-12T23:36:08.937Z,100346.16
2022-10-12T23:38:38.979Z,100340.16
2022-10-12T23:41:08.701Z,100339.72
2022-10-12T23:43:38.033Z,100336.19
2022-10-12T23:46:06.906Z,100340.34
2022-10-12T23:48:36.061Z,100347.38
2022-10-12T23:51:07.377Z,100341.50
2022-10-12T23:53:35.431Z,100344.41
2022-10-12T23:56:03.423Z,100345.78
2022-10-12T23:58:32.849Z,100347.69
